Forside
METAR-TAF:

METAR-TAF

Lufthavne :

Cerklje ob Krki, Slovenien

Breddekreds: 45-53-59N, længdekreds: 15-30-55E, højde: 157 m

Aktuelle vejr

Denne rapport blev lavet for 54 minutter siden, kl. 18:30 UTC
Vind 4 kt fra sydsydøst
Temperatur 29°C
Fugtighed 58%
Tryk 1011 hPa
Sigt 10 km eller mere

METAR: LJCE 161830Z AUTO 15004KT 9999 NCD 29/20 Q1011

Tid: 21:24 (19:24 UTC)

Vejrudsigter

Denne rapport blev lavet for 2 timer og 24 minutter siden, kl. 17:00 UTC
Foreløbig gælder fra 16 på 18 UTC til 17 på 03 UTC
Vind 3 kt fra sydvest
Sigt 10 km eller mere
ingen skyer under 1500m og ingen cumulonimbus

TAF: LJCE 161700Z 1618/1703 22003KT CAVOK

Vejrobservationer og prognoser fra mere end 4000 lufthavne (METAR og TAF).

De gule og røde prikker repræsenterer de meteorologiske stationer.

Flyt musen over at se navnet på stationen.

Så klik over at se vejr observationer og prognoser.

At skifte det kort: Klik på de grønne knapper med et sort kors for at zoome ind; på den grønne knap med en bindestreg for at zoome ud; eller på de grønne pile for tilstødende kort.


METAR-TAF: